sensor_id;sensor_type;location;lat;lon;timestamp;pressure;altitude;pressure_sealevel;temperature;humidity
60589;BME280;46421;48.610;9.334;2023-01-01T00:00:01;98332.19;;;7.82;100.00
60589;BME280;46421;48.610;9.334;2023-01-01T00:02:26;98331.66;;;7.78;100.00
60589;BME280;46421;48.610;9.334;2023-01-01T00:04:51;98334.31;;;7.60;100.00
60589;BME280;46421;48.610;9.334;2023-01-01T00:07:17;98336.13;;;7.59;100.00
60589;BME280;46421;48.610;9.334;2023-01-01T00:09:42;98329.38;;;7.47;100.00
60589;BME280;46421;48.610;9.334;2023-01-01T00:12:26;98332.59;;;7.23;100.00
60589;BME280;46421;48.610;9.334;2023-01-01T00:14:51;98337.03;;;7.50;100.00
60589;BME280;46421;48.610;9.334;2023-01-01T00:17:17;98332.75;;;7.39;100.00
60589;BME280;46421;48.610;9.334;2023-01-01T00:19:42;98334.56;;;7.21;100.00
60589;BME280;46421;48.610;9.334;2023-01-01T00:22:07;98347.78;;;7.21;100.00
60589;BME280;46421;48.610;9.334;2023-01-01T00:24:33;98343.06;;;7.60;100.00
60589;BME280;46421;48.610;9.334;2023-01-01T00:26:58;98334.22;;;7.52;100.00
60589;BME280;46421;48.610;9.334;2023-01-01T00:29:23;98337.06;;;7.40;100.00
60589;BME280;46421;48.610;9.334;2023-01-01T00:31:49;98345.03;;;7.58;100.00
60589;BME280;46421;48.610;9.334;2023-01-01T00:34:14;98336.63;;;7.63;100.00
60589;BME280;46421;48.610;9.334;2023-01-01T00:36:39;98339.19;;;7.37;100.00
60589;BME280;46421;48.610;9.334;2023-01-01T00:39:05;98335.63;;;7.28;100.00
60589;BME280;46421;48.610;9.334;2023-01-01T00:41:30;98337.94;;;7.59;100.00
60589;BME280;46421;48.610;9.334;2023-01-01T00:43:55;98330.44;;;7.36;100.00
60589;BME280;46421;48.610;9.334;2023-01-01T00:46:21;98331.25;;;7.37;100.00
60589;BME280;46421;48.610;9.334;2023-01-01T00:48:46;98327.78;;;7.36;100.00
60589;BME280;46421;48.610;9.334;2023-01-01T00:51:12;98325.84;;;7.38;100.00
60589;BME280;46421;48.610;9.334;2023-01-01T00:53:37;98324.34;;;7.54;100.00
60589;BME280;46421;48.610;9.334;2023-01-01T00:56:05;98324.91;;;7.48;100.00
60589;BME280;46421;48.610;9.334;2023-01-01T00:58:30;98325.59;;;7.50;100.00
60589;BME280;46421;48.610;9.334;2023-01-01T01:00:55;98322.88;;;7.41;100.00
60589;BME280;46421;48.610;9.334;2023-01-01T01:03:21;98321.75;;;7.44;100.00
60589;BME280;46421;48.610;9.334;2023-01-01T01:05:55;98318.28;;;7.43;100.00
60589;BME280;46421;48.610;9.334;2023-01-01T01:08:20;98317.81;;;7.48;100.00
60589;BME280;46421;48.610;9.334;2023-01-01T01:10:45;98316.22;;;7.37;100.00
60589;BME280;46421;48.610;9.334;2023-01-01T01:13:11;98320.22;;;7.41;100.00
60589;BME280;46421;48.610;9.334;2023-01-01T01:15:37;98313.69;;;7.46;100.00
60589;BME280;46421;48.610;9.334;2023-01-01T01:18:02;98310.34;;;7.43;100.00
60589;BME280;46421;48.610;9.334;2023-01-01T01:20:27;98312.13;;;7.43;100.00
60589;BME280;46421;48.610;9.334;2023-01-01T01:22:53;98315.09;;;7.40;100.00
60589;BME280;46421;48.610;9.334;2023-01-01T01:25:18;98313.97;;;7.42;100.00
60589;BME280;46421;48.610;9.334;2023-01-01T01:27:46;98311.78;;;7.56;100.00
60589;BME280;46421;48.610;9.334;2023-01-01T01:30:12;98319.84;;;7.36;100.00
60589;BME280;46421;48.610;9.334;2023-01-01T01:32:37;98320.28;;;7.32;100.00
60589;BME280;46421;48.610;9.334;2023-01-01T01:35:03;98310.63;;;7.40;100.00
60589;BME280;46421;48.610;9.334;2023-01-01T01:37:29;98320.31;;;7.50;100.00
60589;BME280;46421;48.610;9.334;2023-01-01T01:39:54;98313.06;;;7.52;100.00
60589;BME280;46421;48.610;9.334;2023-01-01T01:42:20;98324.38;;;7.62;100.00
60589;BME280;46421;48.610;9.334;2023-01-01T01:47:25;98320.69;;;7.55;100.00
60589;BME280;46421;48.610;9.334;2023-01-01T01:49:56;98317.28;;;7.44;100.00
60589;BME280;46421;48.610;9.334;2023-01-01T01:52:24;98319.00;;;7.36;100.00
60589;BME280;46421;48.610;9.334;2023-01-01T01:54:51;98321.22;;;7.40;100.00
60589;BME280;46421;48.610;9.334;2023-01-01T01:57:17;98313.69;;;7.46;100.00
60589;BME280;46421;48.610;9.334;2023-01-01T01:59:46;98319.88;;;7.72;100.00
60589;BME280;46421;48.610;9.334;2023-01-01T02:02:36;98318.91;;;8.18;100.00
60589;BME280;46421;48.610;9.334;2023-01-01T02:05:03;98316.31;;;8.70;100.00
60589;BME280;46421;48.610;9.334;2023-01-01T02:07:30;98319.09;;;9.04;100.00
60589;BME280;46421;48.610;9.334;2023-01-01T02:09:57;98319.53;;;9.33;100.00
60589;BME280;46421;48.610;9.334;2023-01-01T02:12:23;98330.22;;;9.75;99.31
60589;BME280;46421;48.610;9.334;2023-01-01T02:14:49;98325.94;;;9.99;97.00
60589;BME280;46421;48.610;9.334;2023-01-01T02:17:21;98327.59;;;10.08;95.78
60589;BME280;46421;48.610;9.334;2023-01-01T02:30:16;98331.25;;;10.32;90.68
60589;BME280;46421;48.610;9.334;2023-01-01T02:32:45;98317.78;;;10.50;89.86
60589;BME280;46421;48.610;9.334;2023-01-01T02:35:20;98313.13;;;10.60;88.69
60589;BME280;46421;48.610;9.334;2023-01-01T02:38:10;98319.25;;;10.69;88.37
60589;BME280;46421;48.610;9.334;2023-01-01T02:40:44;98313.56;;;10.80;87.65
60589;BME280;46421;48.610;9.334;2023-01-01T02:43:11;98319.63;;;11.05;85.87
60589;BME280;46421;48.610;9.334;2023-01-01T02:45:37;98312.97;;;11.01;86.00
60589;BME280;46421;48.610;9.334;2023-01-01T02:48:33;98313.75;;;11.18;85.13
60589;BME280;46421;48.610;9.334;2023-01-01T02:50:51;98321.84;;;11.25;84.31
60589;BME280;46421;48.610;9.334;2023-01-01T02:53:25;98307.63;;;11.10;85.31
60589;BME280;46421;48.610;9.334;2023-01-01T02:56:20;98312.78;;;11.11;84.29
60589;BME280;46421;48.610;9.334;2023-01-01T02:59:25;98315.41;;;11.19;83.48
60589;BME280;46421;48.610;9.334;2023-01-01T03:02:16;98323.25;;;11.13;84.43
60589;BME280;46421;48.610;9.334;2023-01-01T03:07:39;98339.50;;;10.78;85.66
60589;BME280;46421;48.610;9.334;2023-01-01T03:10:21;98348.03;;;10.40;88.36
60589;BME280;46421;48.610;9.334;2023-01-01T03:12:55;98358.16;;;10.37;89.54
60589;BME280;46421;48.610;9.334;2023-01-01T03:15:37;98354.47;;;10.29;89.42
60589;BME280;46421;48.610;9.334;2023-01-01T03:18:09;98343.34;;;9.93;90.80
60589;BME280;46421;48.610;9.334;2023-01-01T03:20:40;98357.22;;;9.54;93.64
60589;BME280;46421;48.610;9.334;2023-01-01T03:23:13;98349.34;;;9.27;94.84
60589;BME280;46421;48.610;9.334;2023-01-01T03:25:45;98359.38;;;9.07;97.31
60589;BME280;46421;48.610;9.334;2023-01-01T03:28:16;98360.84;;;8.93;97.94
60589;BME280;46421;48.610;9.334;2023-01-01T03:30:44;98357.16;;;8.86;98.05
60589;BME280;46421;48.610;9.334;2023-01-01T03:33:24;98368.25;;;8.63;98.79
60589;BME280;46421;48.610;9.334;2023-01-01T03:36:08;98355.34;;;8.42;99.95
60589;BME280;46421;48.610;9.334;2023-01-01T03:38:51;98356.22;;;8.25;100.00
60589;BME280;46421;48.610;9.334;2023-01-01T03:41:38;98351.00;;;8.15;100.00
60589;BME280;46421;48.610;9.334;2023-01-01T03:44:11;98352.81;;;8.14;100.00
60589;BME280;46421;48.610;9.334;2023-01-01T03:46:40;98364.72;;;7.92;100.00
60589;BME280;46421;48.610;9.334;2023-01-01T03:49:07;98363.34;;;7.88;100.00
60589;BME280;46421;48.610;9.334;2023-01-01T03:52:00;98367.41;;;7.64;100.00
60589;BME280;46421;48.610;9.334;2023-01-01T04:00:06;98372.63;;;7.74;100.00
60589;BME280;46421;48.610;9.334;2023-01-01T04:02:58;98377.34;;;7.80;100.00
60589;BME280;46421;48.610;9.334;2023-01-01T04:05:25;98371.81;;;7.73;100.00
60589;BME280;46421;48.610;9.334;2023-01-01T04:07:52;98366.16;;;7.68;100.00
60589;BME280;46421;48.610;9.334;2023-01-01T04:10:18;98375.69;;;7.79;100.00
60589;BME280;46421;48.610;9.334;2023-01-01T04:12:49;98375.81;;;7.78;100.00
60589;BME280;46421;48.610;9.334;2023-01-01T04:15:18;98371.56;;;7.67;100.00
60589;BME280;46421;48.610;9.334;2023-01-01T04:17:44;98376.88;;;7.67;100.00
60589;BME280;46421;48.610;9.334;2023-01-01T04:20:10;98376.66;;;7.60;100.00
60589;BME280;46421;48.610;9.334;2023-01-01T04:22:35;98378.16;;;7.63;100.00
60589;BME280;46421;48.610;9.334;2023-01-01T04:25:01;98376.94;;;7.57;100.00
60589;BME280;46421;48.610;9.334;2023-01-01T04:27:26;98376.47;;;7.43;100.00
60589;BME280;46421;48.610;9.334;2023-01-01T04:29:51;98376.09;;;7.38;100.00
60589;BME280;46421;48.610;9.334;2023-01-01T04:32:17;98378.19;;;7.35;100.00
60589;BME280;46421;48.610;9.334;2023-01-01T04:34:42;98382.47;;;7.36;100.00
60589;BME280;46421;48.610;9.334;2023-01-01T04:37:08;98367.63;;;7.35;100.00
60589;BME280;46421;48.610;9.334;2023-01-01T04:39:33;98366.50;;;7.27;100.00
60589;BME280;46421;48.610;9.334;2023-01-01T04:41:58;98378.66;;;7.20;100.00
60589;BME280;46421;48.610;9.334;2023-01-01T04:44:24;98375.34;;;7.18;100.00
60589;BME280;46421;48.610;9.334;2023-01-01T04:46:49;98376.59;;;7.14;100.00
60589;BME280;46421;48.610;9.334;2023-01-01T04:49:14;98382.59;;;7.16;100.00
60589;BME280;46421;48.610;9.334;2023-01-01T04:51:40;98390.84;;;7.31;100.00
60589;BME280;46421;48.610;9.334;2023-01-01T04:54:05;98391.69;;;7.32;100.00
60589;BME280;46421;48.610;9.334;2023-01-01T04:56:31;98383.56;;;7.43;100.00
60589;BME280;46421;48.610;9.334;2023-01-01T04:58:56;98389.06;;;7.32;100.00
60589;BME280;46421;48.610;9.334;2023-01-01T05:01:24;98391.44;;;7.25;100.00
60589;BME280;46421;48.610;9.334;2023-01-01T05:03:51;98383.81;;;7.22;100.00
60589;BME280;46421;48.610;9.334;2023-01-01T05:06:17;98386.59;;;7.20;100.00
60589;BME280;46421;48.610;9.334;2023-01-01T05:08:44;98392.25;;;7.07;100.00
60589;BME280;46421;48.610;9.334;2023-01-01T05:11:15;98392.28;;;7.25;100.00
60589;BME280;46421;48.610;9.334;2023-01-01T05:13:43;98392.91;;;7.09;100.00
60589;BME280;46421;48.610;9.334;2023-01-01T05:16:11;98391.13;;;7.00;100.00
60589;BME280;46421;48.610;9.334;2023-01-01T05:18:38;98400.13;;;7.17;100.00
60589;BME280;46421;48.610;9.334;2023-01-01T05:21:10;98407.78;;;7.10;100.00
60589;BME280;46421;48.610;9.334;2023-01-01T05:23:36;98410.63;;;6.99;100.00
60589;BME280;46421;48.610;9.334;2023-01-01T05:26:09;98409.25;;;6.95;100.00
60589;BME280;46421;48.610;9.334;2023-01-01T05:28:35;98416.22;;;6.86;100.00
60589;BME280;46421;48.610;9.334;2023-01-01T05:31:07;98419.13;;;6.93;100.00
60589;BME280;46421;48.610;9.334;2023-01-01T05:33:32;98421.53;;;6.86;100.00
60589;BME280;46421;48.610;9.334;2023-01-01T05:35:58;98408.34;;;6.76;100.00
60589;BME280;46421;48.610;9.334;2023-01-01T05:38:24;98418.03;;;6.86;100.00
60589;BME280;46421;48.610;9.334;2023-01-01T05:40:49;98420.41;;;6.89;100.00
60589;BME280;46421;48.610;9.334;2023-01-01T05:43:16;98424.19;;;6.76;100.00
60589;BME280;46421;48.610;9.334;2023-01-01T05:45:42;98432.53;;;6.72;100.00
60589;BME280;46421;48.610;9.334;2023-01-01T05:48:08;98432.84;;;6.59;100.00
60589;BME280;46421;48.610;9.334;2023-01-01T05:50:34;98426.19;;;6.45;100.00
60589;BME280;46421;48.610;9.334;2023-01-01T05:52:59;98414.09;;;6.42;100.00
60589;BME280;46421;48.610;9.334;2023-01-01T05:55:25;98433.81;;;6.58;100.00
60589;BME280;46421;48.610;9.334;2023-01-01T05:57:50;98437.16;;;6.60;100.00
60589;BME280;46421;48.610;9.334;2023-01-01T06:00:15;98434.34;;;6.71;100.00
60589;BME280;46421;48.610;9.334;2023-01-01T06:02:41;98443.28;;;6.51;100.00
60589;BME280;46421;48.610;9.334;2023-01-01T06:05:06;98443.13;;;6.42;100.00
60589;BME280;46421;48.610;9.334;2023-01-01T06:07:32;98447.16;;;6.46;100.00
60589;BME280;46421;48.610;9.334;2023-01-01T06:09:57;98445.47;;;6.45;100.00
60589;BME280;46421;48.610;9.334;2023-01-01T06:12:23;98450.75;;;6.45;100.00
60589;BME280;46421;48.610;9.334;2023-01-01T06:14:48;98446.19;;;6.47;100.00
60589;BME280;46421;48.610;9.334;2023-01-01T06:17:13;98445.19;;;6.58;100.00
60589;BME280;46421;48.610;9.334;2023-01-01T06:19:38;98445.09;;;6.40;100.00
60589;BME280;46421;48.610;9.334;2023-01-01T06:22:04;98448.56;;;6.51;100.00
60589;BME280;46421;48.610;9.334;2023-01-01T06:24:30;98453.84;;;6.41;100.00
60589;BME280;46421;48.610;9.334;2023-01-01T06:26:55;98451.88;;;6.43;100.00
60589;BME280;46421;48.610;9.334;2023-01-01T06:29:20;98451.19;;;6.31;100.00
60589;BME280;46421;48.610;9.334;2023-01-01T06:31:46;98448.97;;;6.16;100.00
60589;BME280;46421;48.610;9.334;2023-01-01T06:34:11;98447.44;;;6.04;100.00
60589;BME280;46421;48.610;9.334;2023-01-01T06:36:37;98455.91;;;6.17;100.00
60589;BME280;46421;48.610;9.334;2023-01-01T06:39:02;98458.22;;;5.81;100.00
60589;BME280;46421;48.610;9.334;2023-01-01T06:41:28;98459.72;;;5.74;100.00
60589;BME280;46421;48.610;9.334;2023-01-01T06:43:56;98464.03;;;5.75;100.00
60589;BME280;46421;48.610;9.334;2023-01-01T06:46:27;98471.66;;;5.78;100.00
60589;BME280;46421;48.610;9.334;2023-01-01T06:48:56;98460.84;;;5.81;100.00
60589;BME280;46421;48.610;9.334;2023-01-01T06:51:27;98470.28;;;5.74;100.00
60589;BME280;46421;48.610;9.334;2023-01-01T06:53:53;98467.09;;;5.80;100.00
60589;BME280;46421;48.610;9.334;2023-01-01T06:56:19;98473.66;;;5.96;100.00
60589;BME280;46421;48.610;9.334;2023-01-01T06:58:45;98480.28;;;5.80;100.00
60589;BME280;46421;48.610;9.334;2023-01-01T07:01:13;98464.31;;;5.92;100.00
60589;BME280;46421;48.610;9.334;2023-01-01T07:03:39;98478.63;;;5.89;100.00
60589;BME280;46421;48.610;9.334;2023-01-01T07:06:06;98473.84;;;6.04;100.00
60589;BME280;46421;48.610;9.334;2023-01-01T07:08:32;98461.69;;;5.92;100.00
60589;BME280;46421;48.610;9.334;2023-01-01T07:10:57;98466.41;;;5.88;100.00
60589;BME280;46421;48.610;9.334;2023-01-01T07:13:24;98470.50;;;6.12;100.00
60589;BME280;46421;48.610;9.334;2023-01-01T07:15:49;98467.84;;;6.12;100.00
60589;BME280;46421;48.610;9.334;2023-01-01T07:18:15;98471.63;;;6.39;100.00
60589;BME280;46421;48.610;9.334;2023-01-01T07:20:40;98478.84;;;6.27;100.00
60589;BME280;46421;48.610;9.334;2023-01-01T07:23:07;98473.13;;;6.12;100.00
60589;BME280;46421;48.610;9.334;2023-01-01T07:25:32;98469.03;;;5.78;100.00
60589;BME280;46421;48.610;9.334;2023-01-01T07:27:57;98471.81;;;5.86;100.00
60589;BME280;46421;48.610;9.334;2023-01-01T07:30:23;98469.59;;;5.92;100.00
60589;BME280;46421;48.610;9.334;2023-01-01T07:32:53;98463.44;;;6.12;100.00
60589;BME280;46421;48.610;9.334;2023-01-01T07:35:19;98470.66;;;6.20;100.00
60589;BME280;46421;48.610;9.334;2023-01-01T07:37:44;98459.81;;;6.23;100.00
60589;BME280;46421;48.610;9.334;2023-01-01T07:40:10;98482.59;;;6.54;100.00
60589;BME280;46421;48.610;9.334;2023-01-01T07:42:35;98468.28;;;6.46;100.00
60589;BME280;46421;48.610;9.334;2023-01-01T07:45:00;98478.03;;;6.36;100.00
60589;BME280;46421;48.610;9.334;2023-01-01T07:47:26;98476.91;;;6.68;100.00
60589;BME280;46421;48.610;9.334;2023-01-01T07:49:52;98479.72;;;6.37;100.00
60589;BME280;46421;48.610;9.334;2023-01-01T07:52:17;98493.03;;;6.55;100.00
60589;BME280;46421;48.610;9.334;2023-01-01T07:54:43;98491.22;;;6.46;100.00
60589;BME280;46421;48.610;9.334;2023-01-01T07:57:09;98491.22;;;6.46;100.00
60589;BME280;46421;48.610;9.334;2023-01-01T07:59:34;98499.84;;;6.58;100.00
60589;BME280;46421;48.610;9.334;2023-01-01T08:02:00;98494.41;;;6.69;100.00
60589;BME280;46421;48.610;9.334;2023-01-01T08:04:25;98491.09;;;6.67;100.00
60589;BME280;46421;48.610;9.334;2023-01-01T08:06:51;98487.47;;;6.78;100.00
60589;BME280;46421;48.610;9.334;2023-01-01T08:09:17;98487.59;;;6.86;100.00
60589;BME280;46421;48.610;9.334;2023-01-01T08:11:42;98490.66;;;6.82;100.00
60589;BME280;46421;48.610;9.334;2023-01-01T08:14:08;98503.56;;;6.85;100.00
60589;BME280;46421;48.610;9.334;2023-01-01T08:16:33;98505.50;;;7.02;100.00
60589;BME280;46421;48.610;9.334;2023-01-01T08:18:58;98510.91;;;7.10;100.00
60589;BME280;46421;48.610;9.334;2023-01-01T08:21:23;98510.06;;;7.20;100.00
60589;BME280;46421;48.610;9.334;2023-01-01T08:23:49;98518.91;;;7.28;100.00
60589;BME280;46421;48.610;9.334;2023-01-01T08:26:16;98525.72;;;7.41;100.00
60589;BME280;46421;48.610;9.334;2023-01-01T08:28:43;98526.38;;;7.43;100.00
60589;BME280;46421;48.610;9.334;2023-01-01T08:31:08;98532.34;;;7.07;100.00
60589;BME280;46421;48.610;9.334;2023-01-01T08:33:34;98527.53;;;7.40;100.00
60589;BME280;46421;48.610;9.334;2023-01-01T08:36:00;98530.22;;;7.21;100.00
60589;BME280;46421;48.610;9.334;2023-01-01T08:38:25;98522.84;;;7.62;100.00
60589;BME280;46421;48.610;9.334;2023-01-01T08:40:51;98517.56;;;7.90;99.85
60589;BME280;46421;48.610;9.334;2023-01-01T08:43:17;98532.06;;;8.14;97.49
60589;BME280;46421;48.610;9.334;2023-01-01T08:45:42;98524.28;;;7.84;100.00
60589;BME280;46421;48.610;9.334;2023-01-01T08:48:08;98530.75;;;8.00;100.00
60589;BME280;46421;48.610;9.334;2023-01-01T08:50:33;98531.56;;;8.46;97.88
60589;BME280;46421;48.610;9.334;2023-01-01T08:52:59;98533.88;;;8.59;97.88
60589;BME280;46421;48.610;9.334;2023-01-01T08:55:24;98539.09;;;8.51;97.31
60589;BME280;46421;48.610;9.334;2023-01-01T08:57:49;98539.09;;;8.51;96.86
60589;BME280;46421;48.610;9.334;2023-01-01T09:00:15;98552.56;;;8.76;95.17
60589;BME280;46421;48.610;9.334;2023-01-01T09:02:42;98550.38;;;8.71;96.28
60589;BME280;46421;48.610;9.334;2023-01-01T09:05:07;98553.34;;;8.86;92.41
60589;BME280;46421;48.610;9.334;2023-01-01T09:07:33;98551.13;;;8.81;92.37
60589;BME280;46421;48.610;9.334;2023-01-01T09:09:58;98557.34;;;8.72;93.52
60589;BME280;46421;48.610;9.334;2023-01-01T09:12:23;98563.19;;;8.76;93.75
60589;BME280;46421;48.610;9.334;2023-01-01T09:14:49;98566.38;;;8.61;92.76
60589;BME280;46421;48.610;9.334;2023-01-01T09:17:14;98570.53;;;8.64;94.17
60589;BME280;46421;48.610;9.334;2023-01-01T09:19:40;98563.94;;;8.22;95.24
60589;BME280;46421;48.610;9.334;2023-01-01T09:22:09;98564.09;;;8.66;94.07
60589;BME280;46421;48.610;9.334;2023-01-01T09:24:35;98556.66;;;8.88;91.92
60589;BME280;46421;48.610;9.334;2023-01-01T09:27:00;98557.47;;;9.07;92.58
60589;BME280;46421;48.610;9.334;2023-01-01T09:29:26;98554.38;;;8.93;91.76
60589;BME280;46421;48.610;9.334;2023-01-01T09:31:51;98560.81;;;9.09;91.50
60589;BME280;46421;48.610;9.334;2023-01-01T09:34:16;98556.22;;;9.19;91.98
60589;BME280;46421;48.610;9.334;2023-01-01T09:36:42;98551.91;;;9.18;92.12
60589;BME280;46421;48.610;9.334;2023-01-01T09:39:10;98555.84;;;9.67;90.61
60589;BME280;46421;48.610;9.334;2023-01-01T09:41:41;98560.81;;;9.61;90.35
60589;BME280;46421;48.610;9.334;2023-01-01T09:47:37;98558.97;;;9.62;90.70
60589;BME280;46421;48.610;9.334;2023-01-01T09:50:09;98551.75;;;9.20;92.54
60589;BME280;46421;48.610;9.334;2023-01-01T09:52:44;98553.47;;;9.55;92.66
60589;BME280;46421;48.610;9.334;2023-01-01T09:55:37;98556.28;;;9.88;90.60
60589;BME280;46421;48.610;9.334;2023-01-01T09:58:09;98560.63;;;9.63;90.58
60589;BME280;46421;48.610;9.334;2023-01-01T10:00:35;98548.06;;;9.65;91.49
60589;BME280;46421;48.610;9.334;2023-01-01T10:03:16;98546.22;;;10.08;90.51
60589;BME280;46421;48.610;9.334;2023-01-01T10:05:53;98545.06;;;10.46;88.27
60589;BME280;46421;48.610;9.334;2023-01-01T10:11:21;98552.06;;;10.71;89.24
60589;BME280;46421;48.610;9.334;2023-01-01T10:13:50;98550.38;;;10.79;89.18
60589;BME280;46421;48.610;9.334;2023-01-01T10:16:39;98543.25;;;10.87;88.25
60589;BME280;46421;48.610;9.334;2023-01-01T10:19:21;98551.06;;;10.72;88.42
60589;BME280;46421;48.610;9.334;2023-01-01T10:21:50;98545.56;;;10.99;88.45
60589;BME280;46421;48.610;9.334;2023-01-01T10:24:37;98543.59;;;11.17;88.32
60589;BME280;46421;48.610;9.334;2023-01-01T10:27:05;98544.88;;;11.38;87.56
60589;BME280;46421;48.610;9.334;2023-01-01T10:29:44;98543.81;;;11.64;87.72
60589;BME280;46421;48.610;9.334;2023-01-01T10:32:35;98548.44;;;11.78;86.84
60589;BME280;46421;48.610;9.334;2023-01-01T10:35:02;98548.00;;;12.06;85.72
60589;BME280;46421;48.610;9.334;2023-01-01T10:37:33;98542.44;;;12.24;84.68
60589;BME280;46421;48.610;9.334;2023-01-01T10:40:13;98544.94;;;12.49;81.46
60589;BME280;46421;48.610;9.334;2023-01-01T10:42:40;98534.34;;;12.64;81.74
60589;BME280;46421;48.610;9.334;2023-01-01T10:45:11;98535.47;;;12.93;80.09
60589;BME280;46421;48.610;9.334;2023-01-01T10:47:39;98544.28;;;13.17;74.58
60589;BME280;46421;48.610;9.334;2023-01-01T10:50:40;98538.38;;;13.44;72.07
60589;BME280;46421;48.610;9.334;2023-01-01T10:53:18;98533.41;;;13.41;73.49
60589;BME280;46421;48.610;9.334;2023-01-01T10:55:49;98543.44;;;13.54;72.15
60589;BME280;46421;48.610;9.334;2023-01-01T10:58:26;98540.22;;;13.74;71.42
60589;BME280;46421;48.610;9.334;2023-01-01T11:00:58;98531.66;;;13.64;70.00
60589;BME280;46421;48.610;9.334;2023-01-01T11:03:23;98526.22;;;13.72;71.12
60589;BME280;46421;48.610;9.334;2023-01-01T11:06:21;98536.34;;;13.76;69.68
60589;BME280;46421;48.610;9.334;2023-01-01T11:08:49;98540.13;;;13.97;69.93
60589;BME280;46421;48.610;9.334;2023-01-01T11:11:27;98534.13;;;13.95;70.39
60589;BME280;46421;48.610;9.334;2023-01-01T11:13:55;98541.38;;;14.01;70.79
60589;BME280;46421;48.610;9.334;2023-01-01T11:16:22;98527.91;;;14.10;69.65
60589;BME280;46421;48.610;9.334;2023-01-01T11:18:49;98526.25;;;14.08;71.86
60589;BME280;46421;48.610;9.334;2023-01-01T11:21:21;98526.69;;;13.75;74.36
60589;BME280;46421;48.610;9.334;2023-01-01T11:23:50;98525.13;;;13.66;76.22
60589;BME280;46421;48.610;9.334;2023-01-01T11:28:42;98520.59;;;13.52;77.39
60589;BME280;46421;48.610;9.334;2023-01-01T11:31:26;98505.47;;;13.29;78.41
60589;BME280;46421;48.610;9.334;2023-01-01T11:33:54;98513.63;;;13.27;78.29
60589;BME280;46421;48.610;9.334;2023-01-01T11:36:23;98505.97;;;13.09;78.82
60589;BME280;46421;48.610;9.334;2023-01-01T11:39:38;98496.84;;;13.04;79.44
60589;BME280;46421;48.610;9.334;2023-01-01T11:41:44;98513.97;;;13.48;79.34
60589;BME280;46421;48.610;9.334;2023-01-01T11:44:12;98500.72;;;14.43;71.84
60589;BME280;46421;48.610;9.334;2023-01-01T11:46:46;98484.16;;;17.97;59.35
60589;BME280;46421;48.610;9.334;2023-01-01T11:49:22;98489.91;;;20.22;49.96
60589;BME280;46421;48.610;9.334;2023-01-01T11:51:49;98482.03;;;21.17;47.43
60589;BME280;46421;48.610;9.334;2023-01-01T11:54:33;98481.34;;;21.45;45.16
60589;BME280;46421;48.610;9.334;2023-01-01T11:57:13;98478.94;;;22.88;42.90
60589;BME280;46421;48.610;9.334;2023-01-01T12:00:01;98461.50;;;23.75;40.86
60589;BME280;46421;48.610;9.334;2023-01-01T12:02:35;98451.41;;;23.70;40.17
60589;BME280;46421;48.610;9.334;2023-01-01T12:07:37;98444.88;;;22.93;41.67
60589;BME280;46421;48.610;9.334;2023-01-01T12:10:12;98445.59;;;22.54;42.44
60589;BME280;46421;48.610;9.334;2023-01-01T12:12:45;98446.78;;;22.58;42.37
60589;BME280;46421;48.610;9.334;2023-01-01T12:17:50;98431.53;;;20.82;44.64
60589;BME280;46421;48.610;9.334;2023-01-01T12:20:24;98431.81;;;19.52;48.67
60589;BME280;46421;48.610;9.334;2023-01-01T12:22:54;98434.19;;;19.60;48.95
60589;BME280;46421;48.610;9.334;2023-01-01T12:25:20;98421.94;;;19.27;49.79
60589;BME280;46421;48.610;9.334;2023-01-01T12:30:18;98424.91;;;18.68;52.16
60589;BME280;46421;48.610;9.334;2023-01-01T12:46:13;98413.25;;;15.63;60.60
60589;BME280;46421;48.610;9.334;2023-01-01T12:51:41;98416.47;;;15.04;64.41
60589;BME280;46421;48.610;9.334;2023-01-01T12:57:25;98409.28;;;14.76;64.64
60589;BME280;46421;48.610;9.334;2023-01-01T12:59:54;98414.78;;;14.67;65.31
60589;BME280;46421;48.610;9.334;2023-01-01T13:02:22;98407.06;;;14.58;67.08
60589;BME280;46421;48.610;9.334;2023-01-01T13:05:00;98409.75;;;14.64;66.06
60589;BME280;46421;48.610;9.334;2023-01-01T13:07:30;98402.53;;;14.58;66.03
60589;BME280;46421;48.610;9.334;2023-01-01T13:10:07;98400.84;;;14.57;66.59
60589;BME280;46421;48.610;9.334;2023-01-01T13:12:35;98395.28;;;14.52;68.92
60589;BME280;46421;48.610;9.334;2023-01-01T13:18:00;98388.78;;;14.39;67.61
60589;BME280;46421;48.610;9.334;2023-01-01T13:20:26;98386.63;;;14.28;69.20
60589;BME280;46421;48.610;9.334;2023-01-01T13:22:52;98394.97;;;14.18;70.48
60589;BME280;46421;48.610;9.334;2023-01-01T13:25:20;98396.03;;;14.02;70.92
60589;BME280;46421;48.610;9.334;2023-01-01T13:33:26;98401.28;;;13.74;72.51
60589;BME280;46421;48.610;9.334;2023-01-01T13:38:46;98394.56;;;13.78;73.39
60589;BME280;46421;48.610;9.334;2023-01-01T13:41:32;98386.88;;;13.90;71.98
60589;BME280;46421;48.610;9.334;2023-01-01T13:46:38;98378.09;;;13.59;73.16
60589;BME280;46421;48.610;9.334;2023-01-01T13:49:19;98382.31;;;13.84;73.06
60589;BME280;46421;48.610;9.334;2023-01-01T13:56:57;98379.47;;;13.70;71.03
60589;BME280;46421;48.610;9.334;2023-01-01T14:02:27;98377.44;;;13.72;73.63
60589;BME280;46421;48.610;9.334;2023-01-01T14:04:59;98367.19;;;13.76;73.20
60589;BME280;46421;48.610;9.334;2023-01-01T14:12:41;98360.16;;;13.90;73.10
60589;BME280;46421;48.610;9.334;2023-01-01T14:15:24;98364.72;;;14.18;72.21
60589;BME280;46421;48.610;9.334;2023-01-01T14:17:51;98357.38;;;14.48;64.53
60589;BME280;46421;48.610;9.334;2023-01-01T14:20:20;98357.16;;;14.72;64.07
60589;BME280;46421;48.610;9.334;2023-01-01T14:22:47;98351.28;;;14.83;65.26
60589;BME280;46421;48.610;9.334;2023-01-01T14:25:17;98352.16;;;14.97;64.22
60589;BME280;46421;48.610;9.334;2023-01-01T14:27:44;98359.38;;;15.31;61.68
60589;BME280;46421;48.610;9.334;2023-01-01T14:30:17;98356.34;;;15.06;63.42
60589;BME280;46421;48.610;9.334;2023-01-01T14:32:43;98354.25;;;15.01;63.02
60589;BME280;46421;48.610;9.334;2023-01-01T14:35:17;98354.66;;;14.98;62.79
60589;BME280;46421;48.610;9.334;2023-01-01T14:37:43;98358.13;;;14.92;63.93